Time;durP1;ratioP1;P1;durP2;ratioP2;P2;SDS_P1;SDS_P2;PMS_P1;PMS_P2;Temp;Humidity;BMP_temperature;BMP_pressure;BME280_temperature;BME280_humidity;BME280_pressure;Samples;Min_cycle;Max_cycle;Signal;HPM_P1;HPM_P2
2023/12/26 00:00:31;;;;;;;0.20;0.20;;;;;;;;;;6288329;28;20025;-83
2023/12/26 00:03:31;;;;;;;0.20;0.20;;;;;;;;;;6293562;28;20028;-84
2023/12/26 00:06:32;;;;;;;0.10;0.10;;;;;;;;;;6287909;28;20134;-83
2023/12/26 00:09:32;;;;;;;0.10;0.10;;;;;;;;;;6288145;28;20538;-83
2023/12/26 00:12:32;;;;;;;0.20;0.20;;;;;;;;;;6284647;28;20108;-83
2023/12/26 00:15:34;;;;;;;0.20;0.20;;;;;;;;;;6288276;28;20104;-83
2023/12/26 00:18:34;;;;;;;0.20;0.20;;;;;;;;;;6292791;28;20446;-83
2023/12/26 00:21:34;;;;;;;0.10;0.10;;;;;;;;;;6287930;28;20021;-83
2023/12/26 00:24:34;;;;;;;0.10;0.10;;;;;;;;;;6290658;28;20104;-83
2023/12/26 00:27:37;;;;;;;0.10;0.10;;;;;;;;;;6285608;28;20020;-82
2023/12/26 00:30:37;;;;;;;0.10;0.10;;;;;;;;;;6283149;28;21574;-82
2023/12/26 00:33:40;;;;;;;0.10;0.10;;;;;;;;;;6288973;28;20069;-82
2023/12/26 00:36:40;;;;;;;0.20;0.20;;;;;;;;;;6275038;28;20028;-81
2023/12/26 00:39:41;;;;;;;0.10;0.10;;;;;;;;;;6293213;28;20020;-81
2023/12/26 00:42:42;;;;;;;0.10;0.10;;;;;;;;;;6287825;28;20485;-81
2023/12/26 00:45:43;;;;;;;0.17;0.17;;;;;;;;;;6280882;28;20039;-81
2023/12/26 00:48:44;;;;;;;0.10;0.10;;;;;;;;;;6283599;28;20477;-80
2023/12/26 00:51:44;;;;;;;0.10;0.10;;;;;;;;;;6292837;28;20036;-80
2023/12/26 00:54:44;;;;;;;0.20;0.20;;;;;;;;;;6274810;28;20429;-80
2023/12/26 00:57:44;;;;;;;0.20;0.20;;;;;;;;;;6292631;28;20027;-80
2023/12/26 01:00:45;;;;;;;0.10;0.10;;;;;;;;;;6292520;28;20103;-80
2023/12/26 01:03:47;;;;;;;0.20;0.20;;;;;;;;;;6293121;28;20032;-79
2023/12/26 01:06:47;;;;;;;0.10;0.10;;;;;;;;;;6282573;28;20056;-79
2023/12/26 01:09:47;;;;;;;0.20;0.20;;;;;;;;;;6289496;28;20538;-78
2023/12/26 01:12:47;;;;;;;0.17;0.17;;;;;;;;;;6287538;28;20036;-79
2023/12/26 01:15:48;;;;;;;0.20;0.20;;;;;;;;;;6292978;28;20016;-78
2023/12/26 01:18:48;;;;;;;0.20;0.20;;;;;;;;;;6284501;28;20079;-78
2023/12/26 01:21:48;;;;;;;0.10;0.10;;;;;;;;;;6286682;28;20108;-77
2023/12/26 01:24:49;;;;;;;0.20;0.20;;;;;;;;;;6292378;28;20016;-77
2023/12/26 01:27:50;;;;;;;0.20;0.20;;;;;;;;;;6274175;28;20097;-77
2023/12/26 01:30:50;;;;;;;0.10;0.10;;;;;;;;;;6285576;28;20029;-77
2023/12/26 01:33:51;;;;;;;0.15;0.15;;;;;;;;;;6284747;28;20528;-79
2023/12/26 01:36:52;;;;;;;0.10;0.10;;;;;;;;;;6290203;28;20044;-79
2023/12/26 01:39:52;;;;;;;0.10;0.10;;;;;;;;;;6270081;28;20098;-79
2023/12/26 01:42:52;;;;;;;0.10;0.10;;;;;;;;;;6289708;28;20033;-80
2023/12/26 01:45:56;;;;;;;0.20;0.20;;;;;;;;;;6282967;28;20017;-80
2023/12/26 01:48:56;;;;;;;0.20;0.20;;;;;;;;;;6283965;28;20039;-80
2023/12/26 01:51:58;;;;;;;0.10;0.10;;;;;;;;;;6273791;28;20372;-80
2023/12/26 01:54:59;;;;;;;0.15;0.15;;;;;;;;;;6281729;28;20415;-80
2023/12/26 01:58:00;;;;;;;0.10;0.10;;;;;;;;;;6269972;28;20016;-80
2023/12/26 02:01:00;;;;;;;0.10;0.10;;;;;;;;;;6292658;28;20032;-77
2023/12/26 02:04:01;;;;;;;0.10;0.10;;;;;;;;;;6292146;28;20027;-78
2023/12/26 02:07:02;;;;;;;0.10;0.10;;;;;;;;;;6273076;28;20079;-77
2023/12/26 02:10:04;;;;;;;0.20;0.20;;;;;;;;;;6287238;28;20497;-78
2023/12/26 02:13:04;;;;;;;0.10;0.10;;;;;;;;;;6272266;28;20082;-78
2023/12/26 02:16:08;;;;;;;0.10;0.10;;;;;;;;;;6259385;28;20037;-78
2023/12/26 02:19:08;;;;;;;0.13;0.13;;;;;;;;;;6292319;28;20045;-78
2023/12/26 02:22:08;;;;;;;0.20;0.20;;;;;;;;;;6290845;28;20424;-78
2023/12/26 02:25:09;;;;;;;0.10;0.10;;;;;;;;;;6290721;28;20154;-78
2023/12/26 02:28:09;;;;;;;0.10;0.10;;;;;;;;;;6273925;28;20024;-79
2023/12/26 02:31:10;;;;;;;0.10;0.10;;;;;;;;;;6290979;28;20024;-79
2023/12/26 02:34:10;;;;;;;0.10;0.10;;;;;;;;;;6291548;28;20016;-78
2023/12/26 02:37:11;;;;;;;0.10;0.10;;;;;;;;;;6291078;28;20434;-78
2023/12/26 02:40:11;;;;;;;0.20;0.20;;;;;;;;;;6291887;28;20059;-79
2023/12/26 02:43:12;;;;;;;0.10;0.10;;;;;;;;;;6291420;28;20035;-81
2023/12/26 02:46:12;;;;;;;0.10;0.10;;;;;;;;;;6291584;28;20031;-81
2023/12/26 02:49:12;;;;;;;0.10;0.10;;;;;;;;;;6291483;28;20103;-81
2023/12/26 02:52:12;;;;;;;0.10;0.10;;;;;;;;;;6283181;28;20067;-80
2023/12/26 02:55:13;;;;;;;0.10;0.10;;;;;;;;;;6280366;28;20533;-81
2023/12/26 02:58:13;;;;;;;0.10;0.10;;;;;;;;;;6296208;28;20051;-81
2023/12/26 03:01:13;;;;;;;0.10;0.10;;;;;;;;;;6295929;28;20021;-81
2023/12/26 03:04:14;;;;;;;0.10;0.10;;;;;;;;;;6277916;28;20020;-81
2023/12/26 03:07:14;;;;;;;0.20;0.20;;;;;;;;;;6295942;28;20139;-81
2023/12/26 03:10:14;;;;;;;0.10;0.10;;;;;;;;;;6263584;28;20123;-81
2023/12/26 03:13:14;;;;;;;0.10;0.10;;;;;;;;;;6277489;28;20026;-82
2023/12/26 03:16:14;;;;;;;0.10;0.10;;;;;;;;;;6295349;28;20443;-81
2023/12/26 03:19:15;;;;;;;0.17;0.17;;;;;;;;;;6293034;28;20020;-82
2023/12/26 03:22:15;;;;;;;0.20;0.20;;;;;;;;;;6279841;28;20119;-82
2023/12/26 03:25:15;;;;;;;0.10;0.10;;;;;;;;;;6258698;28;20074;-82
2023/12/26 03:28:16;;;;;;;0.10;0.10;;;;;;;;;;6289066;28;20399;-82
2023/12/26 03:31:16;;;;;;;0.13;0.13;;;;;;;;;;6264594;28;20021;-82
2023/12/26 03:34:16;;;;;;;0.10;0.10;;;;;;;;;;6296121;28;20016;-83
2023/12/26 03:37:16;;;;;;;0.10;0.10;;;;;;;;;;6270408;28;20027;-83
2023/12/26 03:40:17;;;;;;;0.17;0.17;;;;;;;;;;6291284;28;20375;-83
2023/12/26 03:43:17;;;;;;;0.10;0.10;;;;;;;;;;6281282;28;20023;-81
2023/12/26 03:46:17;;;;;;;0.13;0.13;;;;;;;;;;6289424;28;20027;-82
2023/12/26 03:49:17;;;;;;;0.10;0.10;;;;;;;;;;6286644;28;20463;-82
2023/12/26 03:52:17;;;;;;;0.20;0.20;;;;;;;;;;6285194;28;20059;-83
2023/12/26 03:55:18;;;;;;;0.10;0.10;;;;;;;;;;6280886;28;20016;-83
2023/12/26 03:58:18;;;;;;;0.10;0.10;;;;;;;;;;6277251;28;20032;-83
2023/12/26 04:01:18;;;;;;;0.10;0.10;;;;;;;;;;6294418;28;20020;-83
2023/12/26 04:04:18;;;;;;;0.10;0.10;;;;;;;;;;6294661;28;20362;-83
2023/12/26 04:07:18;;;;;;;0.17;0.17;;;;;;;;;;6277020;28;20106;-83
2023/12/26 04:10:19;;;;;;;0.10;0.10;;;;;;;;;;6294679;28;20028;-81
2023/12/26 04:13:19;;;;;;;0.10;0.10;;;;;;;;;;6294411;28;20376;-83
2023/12/26 04:16:19;;;;;;;0.20;0.20;;;;;;;;;;6276021;28;20467;-83
2023/12/26 04:19:19;;;;;;;0.10;0.10;;;;;;;;;;6294788;28;20070;-83
2023/12/26 04:22:19;;;;;;;0.10;0.10;;;;;;;;;;6294399;28;20031;-80
2023/12/26 04:25:22;;;;;;;0.10;0.10;;;;;;;;;;6293664;28;20024;-80
2023/12/26 04:28:22;;;;;;;0.10;0.10;;;;;;;;;;6293888;28;20108;-80
2023/12/26 04:31:22;;;;;;;0.10;0.10;;;;;;;;;;6293488;28;20070;-79
2023/12/26 04:34:22;;;;;;;0.10;0.10;;;;;;;;;;6293870;28;20471;-79
2023/12/26 04:37:26;;;;;;;0.10;0.10;;;;;;;;;;6275967;28;20039;-78
2023/12/26 04:40:26;;;;;;;0.10;0.10;;;;;;;;;;6283558;28;20025;-79
2023/12/26 04:43:26;;;;;;;0.10;0.10;;;;;;;;;;6272405;28;20048;-79
2023/12/26 04:46:27;;;;;;;0.10;0.10;;;;;;;;;;6262435;28;20490;-79
2023/12/26 04:49:27;;;;;;;0.10;0.10;;;;;;;;;;6274600;28;20123;-79
2023/12/26 04:52:27;;;;;;;0.10;0.10;;;;;;;;;;6284153;28;20017;-79
2023/12/26 04:55:27;;;;;;;0.20;0.20;;;;;;;;;;6290299;28;20096;-79
2023/12/26 04:58:28;;;;;;;0.20;0.20;;;;;;;;;;6292498;28;20065;-78
2023/12/26 05:01:28;;;;;;;0.10;0.10;;;;;;;;;;6292768;28;20012;-79
2023/12/26 05:04:28;;;;;;;0.10;0.10;;;;;;;;;;6274871;28;20482;-79
2023/12/26 05:07:28;;;;;;;0.10;0.10;;;;;;;;;;6279263;28;20050;-77
2023/12/26 05:10:28;;;;;;;0.10;0.10;;;;;;;;;;6292774;28;20494;-78
2023/12/26 05:13:28;;;;;;;0.10;0.10;;;;;;;;;;6293142;28;20206;-78
2023/12/26 05:16:30;;;;;;;0.10;0.10;;;;;;;;;;6292179;28;20376;-77
2023/12/26 05:19:30;;;;;;;0.10;0.10;;;;;;;;;;6292359;28;20445;-78
2023/12/26 05:22:30;;;;;;;0.10;0.10;;;;;;;;;;6293258;28;20066;-78
2023/12/26 05:25:30;;;;;;;0.10;0.10;;;;;;;;;;6292087;28;20047;-78
2023/12/26 05:28:30;;;;;;;0.13;0.13;;;;;;;;;;6292480;28;20020;-78
2023/12/26 05:31:31;;;;;;;0.10;0.10;;;;;;;;;;6292410;28;20127;-78
2023/12/26 05:34:31;;;;;;;0.10;0.10;;;;;;;;;;6291949;28;20467;-83
2023/12/26 05:37:31;;;;;;;0.20;0.20;;;;;;;;;;6292395;28;20154;-83
2023/12/26 05:40:31;;;;;;;0.10;0.10;;;;;;;;;;6272919;28;20031;-82
2023/12/26 05:43:31;;;;;;;0.10;0.10;;;;;;;;;;6289031;28;20020;-83
2023/12/26 05:46:32;;;;;;;0.10;0.10;;;;;;;;;;6289716;28;20032;-83
2023/12/26 05:49:32;;;;;;;0.10;0.10;;;;;;;;;;6292426;28;20032;-83
2023/12/26 05:52:32;;;;;;;0.10;0.10;;;;;;;;;;6285063;28;20032;-83
2023/12/26 05:55:32;;;;;;;0.10;0.10;;;;;;;;;;6274231;28;20020;-83
2023/12/26 05:58:33;;;;;;;0.10;0.10;;;;;;;;;;6274282;28;20056;-83
2023/12/26 06:01:33;;;;;;;0.10;0.10;;;;;;;;;;6291975;28;20043;-83
2023/12/26 06:04:33;;;;;;;0.10;0.10;;;;;;;;;;6289823;28;20025;-82
2023/12/26 06:07:33;;;;;;;0.10;0.10;;;;;;;;;;6285046;28;20182;-82
2023/12/26 06:10:34;;;;;;;0.10;0.10;;;;;;;;;;6291707;28;20465;-82
2023/12/26 06:13:35;;;;;;;0.10;0.10;;;;;;;;;;6274156;28;20031;-82
2023/12/26 06:16:35;;;;;;;0.10;0.10;;;;;;;;;;6291392;28;20060;-83
2023/12/26 06:19:35;;;;;;;0.10;0.10;;;;;;;;;;6291312;28;20016;-83
2023/12/26 06:22:35;;;;;;;0.10;0.10;;;;;;;;;;6292043;28;20463;-84
2023/12/26 06:25:35;;;;;;;0.10;0.10;;;;;;;;;;6292113;28;20028;-83
2023/12/26 06:28:36;;;;;;;0.10;0.10;;;;;;;;;;6292589;28;20107;-82
2023/12/26 06:31:36;;;;;;;0.13;0.13;;;;;;;;;;6294732;28;20066;-83
2023/12/26 06:34:36;;;;;;;0.10;0.10;;;;;;;;;;6289372;28;20016;-77
2023/12/26 06:37:37;;;;;;;0.20;0.20;;;;;;;;;;6278005;28;20021;-78
2023/12/26 06:40:37;;;;;;;0.10;0.10;;;;;;;;;;6276977;28;20012;-78
2023/12/26 06:43:38;;;;;;;0.13;0.13;;;;;;;;;;6294798;28;20058;-84
2023/12/26 06:46:41;;;;;;;0.10;0.10;;;;;;;;;;6282011;28;20130;-83
2023/12/26 06:49:43;;;;;;;0.20;0.20;;;;;;;;;;6279774;28;20021;-84
2023/12/26 06:52:44;;;;;;;0.10;0.10;;;;;;;;;;6295599;28;20031;-83
2023/12/26 06:55:44;;;;;;;0.10;0.10;;;;;;;;;;6290781;28;20818;-85
2023/12/26 06:58:44;;;;;;;0.20;0.20;;;;;;;;;;6293758;28;20039;-84
2023/12/26 07:01:48;;;;;;;0.10;0.10;;;;;;;;;;6293914;28;20058;-84
2023/12/26 07:04:48;;;;;;;0.10;0.10;;;;;;;;;;6296260;28;20038;-84
2023/12/26 07:07:48;;;;;;;0.20;0.20;;;;;;;;;;6290230;28;20053;-83
2023/12/26 07:10:49;;;;;;;0.10;0.10;;;;;;;;;;6277591;28;20021;-84
2023/12/26 07:13:49;;;;;;;0.10;0.10;;;;;;;;;;6286086;28;20034;-84
2023/12/26 07:16:50;;;;;;;0.10;0.10;;;;;;;;;;6285724;28;20294;-84
2023/12/26 07:19:52;;;;;;;0.10;0.10;;;;;;;;;;6285023;28;20021;-84
2023/12/26 07:22:52;;;;;;;0.10;0.10;;;;;;;;;;6276011;28;20096;-85
2023/12/26 07:25:53;;;;;;;0.10;0.10;;;;;;;;;;6277244;28;20029;-83
2023/12/26 07:28:53;;;;;;;0.20;0.20;;;;;;;;;;6256571;28;20395;-84
2023/12/26 07:31:54;;;;;;;0.10;0.10;;;;;;;;;;6295224;28;20051;-85
2023/12/26 07:34:54;;;;;;;0.10;0.10;;;;;;;;;;6281444;28;20394;-83
2023/12/26 07:37:54;;;;;;;0.10;0.10;;;;;;;;;;6294576;28;20024;-84
2023/12/26 07:40:55;;;;;;;0.10;0.10;;;;;;;;;;6291736;28;20496;-83
2023/12/26 07:43:55;;;;;;;0.10;0.10;;;;;;;;;;6294470;28;20036;-79
2023/12/26 07:46:55;;;;;;;0.10;0.10;;;;;;;;;;6294130;28;20036;-78
2023/12/26 07:49:55;;;;;;;0.10;0.10;;;;;;;;;;6294826;28;20059;-78
2023/12/26 07:52:55;;;;;;;0.10;0.10;;;;;;;;;;6293548;28;20028;-77
2023/12/26 07:55:56;;;;;;;0.10;0.10;;;;;;;;;;6275420;28;20519;-78
2023/12/26 07:58:56;;;;;;;0.10;0.10;;;;;;;;;;6293861;28;20027;-78
2023/12/26 08:01:56;;;;;;;0.10;0.10;;;;;;;;;;6261267;28;20020;-78
2023/12/26 08:04:56;;;;;;;0.10;0.10;;;;;;;;;;6283949;28;20063;-78
2023/12/26 08:07:57;;;;;;;0.10;0.10;;;;;;;;;;6285546;28;20020;-77
2023/12/26 08:10:57;;;;;;;0.10;0.10;;;;;;;;;;6288503;28;20084;-78
2023/12/26 08:13:57;;;;;;;0.10;0.10;;;;;;;;;;6269305;28;20451;-77
2023/12/26 08:16:57;;;;;;;0.10;0.10;;;;;;;;;;6293916;28;20123;-77
2023/12/26 08:19:58;;;;;;;0.10;0.10;;;;;;;;;;6293921;28;20017;-77
2023/12/26 08:22:58;;;;;;;0.10;0.10;;;;;;;;;;6287618;28;20067;-77
2023/12/26 08:25:58;;;;;;;0.10;0.10;;;;;;;;;;6293368;28;20025;-77
2023/12/26 08:28:59;;;;;;;0.10;0.10;;;;;;;;;;6290634;28;20032;-78
2023/12/26 08:31:59;;;;;;;0.10;0.10;;;;;;;;;;6264853;28;20075;-77
2023/12/26 08:34:59;;;;;;;0.10;0.10;;;;;;;;;;6291663;28;20028;-78
2023/12/26 08:37:59;;;;;;;0.10;0.10;;;;;;;;;;6294193;28;20432;-78
2023/12/26 08:41:00;;;;;;;0.10;0.10;;;;;;;;;;6279584;28;20028;-77
2023/12/26 08:44:00;;;;;;;0.10;0.10;;;;;;;;;;6281573;28;20036;-77
2023/12/26 08:47:03;;;;;;;0.10;0.10;;;;;;;;;;6271638;28;20532;-77
2023/12/26 08:50:05;;;;;;;0.10;0.10;;;;;;;;;;6293320;28;20028;-78
2023/12/26 08:53:05;;;;;;;0.10;0.10;;;;;;;;;;6285982;28;20120;-83
2023/12/26 08:56:06;;;;;;;0.10;0.10;;;;;;;;;;6262566;28;20020;-84
2023/12/26 08:59:06;;;;;;;0.10;0.10;;;;;;;;;;6278909;28;20027;-83
2023/12/26 09:02:06;;;;;;;0.10;0.10;;;;;;;;;;6275411;28;20095;-83
2023/12/26 09:05:07;;;;;;;0.10;0.10;;;;;;;;;;6292460;28;20632;-83
2023/12/26 09:08:07;;;;;;;0.10;0.10;;;;;;;;;;6273971;28;20114;-83
2023/12/26 09:11:07;;;;;;;0.10;0.10;;;;;;;;;;6274893;28;20024;-81
2023/12/26 09:14:07;;;;;;;0.10;0.10;;;;;;;;;;6288519;28;20051;-84
2023/12/26 09:17:08;;;;;;;0.10;0.10;;;;;;;;;;6274987;28;20056;-83
2023/12/26 09:20:09;;;;;;;0.10;0.10;;;;;;;;;;6283076;28;20467;-84
2023/12/26 09:23:11;;;;;;;0.10;0.10;;;;;;;;;;6285762;28;20096;-77
2023/12/26 09:26:12;;;;;;;;;;;;;;;;;;6268632;28;20025;-77
2023/12/26 09:29:13;;;;;;;0.10;0.10;;;;;;;;;;6289089;28;19920;-78
2023/12/26 09:32:13;;;;;;;0.10;0.10;;;;;;;;;;6277024;28;20151;-83
2023/12/26 09:35:13;;;;;;;0.10;0.10;;;;;;;;;;6283294;28;20081;-77
